sensor_id;sensor_type;location;lat;lon;timestamp;P1;durP1;ratioP1;P2;durP2;ratioP2
16304;SDS011;8261;47.678;-122.174;2023-03-30T00:01:35;1.83;;;0.73;;
16304;SDS011;8261;47.678;-122.174;2023-03-30T00:04:06;1.57;;;0.80;;
16304;SDS011;8261;47.678;-122.174;2023-03-30T00:06:38;2.63;;;0.87;;
16304;SDS011;8261;47.678;-122.174;2023-03-30T00:09:08;2.23;;;0.87;;
16304;SDS011;8261;47.678;-122.174;2023-03-30T00:11:39;1.50;;;0.60;;
16304;SDS011;8261;47.678;-122.174;2023-03-30T00:14:13;1.93;;;0.70;;
16304;SDS011;8261;47.678;-122.174;2023-03-30T00:16:46;2.10;;;0.83;;
16304;SDS011;8261;47.678;-122.174;2023-03-30T00:19:16;2.57;;;0.80;;
16304;SDS011;8261;47.678;-122.174;2023-03-30T00:21:48;2.13;;;0.83;;
16304;SDS011;8261;47.678;-122.174;2023-03-30T00:24:19;1.67;;;0.80;;
16304;SDS011;8261;47.678;-122.174;2023-03-30T00:26:49;1.50;;;0.90;;
16304;SDS011;8261;47.678;-122.174;2023-03-30T00:29:21;2.23;;;0.60;;
16304;SDS011;8261;47.678;-122.174;2023-03-30T00:31:52;1.97;;;0.90;;
16304;SDS011;8261;47.678;-122.174;2023-03-30T00:34:23;2.83;;;1.17;;
16304;SDS011;8261;47.678;-122.174;2023-03-30T00:36:53;0.90;;;0.80;;
16304;SDS011;8261;47.678;-122.174;2023-03-30T00:39:24;1.50;;;0.70;;
16304;SDS011;8261;47.678;-122.174;2023-03-30T00:41:55;1.10;;;0.90;;
16304;SDS011;8261;47.678;-122.174;2023-03-30T00:47:35;1.27;;;1.00;;
16304;SDS011;8261;47.678;-122.174;2023-03-30T00:50:10;2.50;;;0.60;;
16304;SDS011;8261;47.678;-122.174;2023-03-30T00:52:48;1.17;;;0.60;;
16304;SDS011;8261;47.678;-122.174;2023-03-30T00:55:23;1.37;;;0.80;;
16304;SDS011;8261;47.678;-122.174;2023-03-30T00:57:57;1.00;;;0.87;;
16304;SDS011;8261;47.678;-122.174;2023-03-30T01:00:31;1.60;;;0.77;;
16304;SDS011;8261;47.678;-122.174;2023-03-30T01:03:10;1.27;;;0.60;;
16304;SDS011;8261;47.678;-122.174;2023-03-30T01:05:46;2.40;;;0.90;;
16304;SDS011;8261;47.678;-122.174;2023-03-30T01:08:17;0.80;;;0.80;;
16304;SDS011;8261;47.678;-122.174;2023-03-30T01:10:50;1.73;;;0.90;;
16304;SDS011;8261;47.678;-122.174;2023-03-30T01:13:23;1.73;;;0.87;;
16304;SDS011;8261;47.678;-122.174;2023-03-30T01:16:01;3.63;;;0.90;;
16304;SDS011;8261;47.678;-122.174;2023-03-30T01:18:44;1.13;;;0.67;;
16304;SDS011;8261;47.678;-122.174;2023-03-30T01:21:37;1.33;;;0.60;;
16304;SDS011;8261;47.678;-122.174;2023-03-30T01:24:45;1.37;;;0.50;;
16304;SDS011;8261;47.678;-122.174;2023-03-30T01:27:43;2.50;;;0.80;;
16304;SDS011;8261;47.678;-122.174;2023-03-30T01:30:42;1.03;;;0.60;;
16304;SDS011;8261;47.678;-122.174;2023-03-30T01:39:51;0.90;;;0.60;;
16304;SDS011;8261;47.678;-122.174;2023-03-30T01:42:26;0.83;;;0.70;;
16304;SDS011;8261;47.678;-122.174;2023-03-30T01:45:07;1.13;;;0.73;;
16304;SDS011;8261;47.678;-122.174;2023-03-30T01:47:44;2.30;;;0.70;;
16304;SDS011;8261;47.678;-122.174;2023-03-30T01:50:23;8.83;;;0.80;;
16304;SDS011;8261;47.678;-122.174;2023-03-30T01:52:57;1.23;;;1.10;;
16304;SDS011;8261;47.678;-122.174;2023-03-30T01:55:33;1.50;;;0.93;;
16304;SDS011;8261;47.678;-122.174;2023-03-30T01:58:09;1.40;;;1.07;;
16304;SDS011;8261;47.678;-122.174;2023-03-30T02:00:45;0.80;;;0.70;;
16304;SDS011;8261;47.678;-122.174;2023-03-30T02:03:18;1.90;;;1.10;;
16304;SDS011;8261;47.678;-122.174;2023-03-30T02:05:56;1.10;;;0.70;;
16304;SDS011;8261;47.678;-122.174;2023-03-30T02:08:37;3.33;;;0.87;;
16304;SDS011;8261;47.678;-122.174;2023-03-30T02:11:11;1.30;;;0.80;;
16304;SDS011;8261;47.678;-122.174;2023-03-30T02:13:42;1.03;;;0.63;;
16304;SDS011;8261;47.678;-122.174;2023-03-30T02:16:15;2.20;;;0.80;;
16304;SDS011;8261;47.678;-122.174;2023-03-30T02:18:50;0.93;;;0.60;;
16304;SDS011;8261;47.678;-122.174;2023-03-30T02:21:22;3.73;;;0.77;;
16304;SDS011;8261;47.678;-122.174;2023-03-30T02:23:54;1.23;;;0.77;;
16304;SDS011;8261;47.678;-122.174;2023-03-30T02:26:28;0.77;;;0.60;;
16304;SDS011;8261;47.678;-122.174;2023-03-30T02:29:00;1.90;;;0.80;;
16304;SDS011;8261;47.678;-122.174;2023-03-30T02:31:31;2.40;;;1.00;;
16304;SDS011;8261;47.678;-122.174;2023-03-30T02:34:06;1.00;;;0.70;;
16304;SDS011;8261;47.678;-122.174;2023-03-30T02:36:56;4.30;;;1.20;;
16304;SDS011;8261;47.678;-122.174;2023-03-30T02:39:45;7.20;;;1.43;;
16304;SDS011;8261;47.678;-122.174;2023-03-30T02:45:22;2.83;;;1.20;;
16304;SDS011;8261;47.678;-122.174;2023-03-30T02:48:06;1.67;;;0.80;;
16304;SDS011;8261;47.678;-122.174;2023-03-30T02:50:46;1.87;;;0.93;;
16304;SDS011;8261;47.678;-122.174;2023-03-30T02:53:24;1.87;;;1.20;;
16304;SDS011;8261;47.678;-122.174;2023-03-30T02:56:01;1.73;;;0.90;;
16304;SDS011;8261;47.678;-122.174;2023-03-30T02:58:41;4.03;;;1.00;;
16304;SDS011;8261;47.678;-122.174;2023-03-30T03:01:19;3.23;;;1.23;;
16304;SDS011;8261;47.678;-122.174;2023-03-30T03:03:55;3.17;;;1.30;;
16304;SDS011;8261;47.678;-122.174;2023-03-30T03:06:28;5.10;;;1.10;;
16304;SDS011;8261;47.678;-122.174;2023-03-30T03:09:00;5.43;;;1.20;;
16304;SDS011;8261;47.678;-122.174;2023-03-30T03:11:32;5.70;;;1.53;;
16304;SDS011;8261;47.678;-122.174;2023-03-30T03:14:05;1.90;;;1.17;;
16304;SDS011;8261;47.678;-122.174;2023-03-30T03:16:36;2.27;;;0.97;;
16304;SDS011;8261;47.678;-122.174;2023-03-30T03:19:08;3.30;;;1.10;;
16304;SDS011;8261;47.678;-122.174;2023-03-30T03:21:39;2.47;;;1.00;;
16304;SDS011;8261;47.678;-122.174;2023-03-30T03:24:11;1.23;;;1.10;;
16304;SDS011;8261;47.678;-122.174;2023-03-30T03:26:44;5.27;;;1.00;;
16304;SDS011;8261;47.678;-122.174;2023-03-30T03:29:16;6.63;;;1.40;;
16304;SDS011;8261;47.678;-122.174;2023-03-30T03:31:47;4.53;;;1.47;;
16304;SDS011;8261;47.678;-122.174;2023-03-30T03:34:18;8.53;;;1.70;;
16304;SDS011;8261;47.678;-122.174;2023-03-30T03:36:52;7.47;;;1.60;;
16304;SDS011;8261;47.678;-122.174;2023-03-30T03:39:23;2.90;;;1.57;;
16304;SDS011;8261;47.678;-122.174;2023-03-30T03:41:55;8.13;;;1.43;;
16304;SDS011;8261;47.678;-122.174;2023-03-30T03:44:27;8.57;;;1.63;;
16304;SDS011;8261;47.678;-122.174;2023-03-30T03:46:58;8.27;;;1.90;;
16304;SDS011;8261;47.678;-122.174;2023-03-30T03:49:29;6.80;;;1.73;;
16304;SDS011;8261;47.678;-122.174;2023-03-30T03:52:00;8.47;;;1.40;;
16304;SDS011;8261;47.678;-122.174;2023-03-30T03:54:31;9.80;;;1.77;;
16304;SDS011;8261;47.678;-122.174;2023-03-30T03:57:03;3.87;;;1.33;;
16304;SDS011;8261;47.678;-122.174;2023-03-30T03:59:36;6.43;;;1.27;;
16304;SDS011;8261;47.678;-122.174;2023-03-30T04:02:07;8.10;;;1.40;;
16304;SDS011;8261;47.678;-122.174;2023-03-30T04:04:39;8.47;;;1.50;;
16304;SDS011;8261;47.678;-122.174;2023-03-30T04:07:10;1.57;;;1.13;;
16304;SDS011;8261;47.678;-122.174;2023-03-30T04:09:41;6.63;;;1.30;;
16304;SDS011;8261;47.678;-122.174;2023-03-30T04:12:13;3.50;;;0.93;;
16304;SDS011;8261;47.678;-122.174;2023-03-30T04:14:48;3.27;;;1.20;;
16304;SDS011;8261;47.678;-122.174;2023-03-30T04:17:19;4.23;;;1.60;;
16304;SDS011;8261;47.678;-122.174;2023-03-30T04:19:51;2.40;;;1.43;;
16304;SDS011;8261;47.678;-122.174;2023-03-30T04:22:22;3.43;;;1.37;;
16304;SDS011;8261;47.678;-122.174;2023-03-30T04:24:54;7.57;;;1.10;;
16304;SDS011;8261;47.678;-122.174;2023-03-30T04:27:25;1.70;;;1.30;;
16304;SDS011;8261;47.678;-122.174;2023-03-30T04:29:59;3.70;;;0.90;;
16304;SDS011;8261;47.678;-122.174;2023-03-30T04:32:30;3.13;;;1.00;;
16304;SDS011;8261;47.678;-122.174;2023-03-30T04:35:02;1.73;;;1.10;;
16304;SDS011;8261;47.678;-122.174;2023-03-30T04:37:33;2.83;;;1.47;;
16304;SDS011;8261;47.678;-122.174;2023-03-30T04:40:06;1.93;;;1.30;;
16304;SDS011;8261;47.678;-122.174;2023-03-30T04:42:38;4.10;;;3.53;;
16304;SDS011;8261;47.678;-122.174;2023-03-30T04:45:11;5.97;;;3.30;;
16304;SDS011;8261;47.678;-122.174;2023-03-30T04:47:43;2.80;;;2.13;;
16304;SDS011;8261;47.678;-122.174;2023-03-30T04:50:14;3.80;;;2.63;;
16304;SDS011;8261;47.678;-122.174;2023-03-30T04:52:46;5.70;;;2.70;;
16304;SDS011;8261;47.678;-122.174;2023-03-30T04:55:17;2.70;;;2.50;;
16304;SDS011;8261;47.678;-122.174;2023-03-30T04:57:49;5.37;;;4.60;;
16304;SDS011;8261;47.678;-122.174;2023-03-30T05:00:22;6.60;;;5.37;;
16304;SDS011;8261;47.678;-122.174;2023-03-30T05:02:54;8.20;;;5.60;;
16304;SDS011;8261;47.678;-122.174;2023-03-30T05:05:25;5.60;;;4.60;;
16304;SDS011;8261;47.678;-122.174;2023-03-30T05:07:56;7.73;;;5.87;;
16304;SDS011;8261;47.678;-122.174;2023-03-30T05:10:27;16.07;;;13.20;;
16304;SDS011;8261;47.678;-122.174;2023-03-30T05:12:59;15.87;;;13.10;;
16304;SDS011;8261;47.678;-122.174;2023-03-30T05:15:32;16.70;;;10.83;;
16304;SDS011;8261;47.678;-122.174;2023-03-30T05:18:03;9.47;;;7.97;;
16304;SDS011;8261;47.678;-122.174;2023-03-30T05:20:34;8.47;;;6.13;;
16304;SDS011;8261;47.678;-122.174;2023-03-30T05:23:06;10.60;;;7.83;;
16304;SDS011;8261;47.678;-122.174;2023-03-30T05:25:38;5.97;;;5.37;;
16304;SDS011;8261;47.678;-122.174;2023-03-30T05:28:13;8.33;;;5.07;;
16304;SDS011;8261;47.678;-122.174;2023-03-30T05:30:46;4.50;;;2.70;;
16304;SDS011;8261;47.678;-122.174;2023-03-30T05:33:25;1.63;;;1.33;;
16304;SDS011;8261;47.678;-122.174;2023-03-30T05:35:55;2.87;;;1.30;;
16304;SDS011;8261;47.678;-122.174;2023-03-30T05:38:27;1.57;;;1.00;;
16304;SDS011;8261;47.678;-122.174;2023-03-30T05:40:58;3.43;;;0.93;;
16304;SDS011;8261;47.678;-122.174;2023-03-30T05:43:29;1.60;;;1.40;;
16304;SDS011;8261;47.678;-122.174;2023-03-30T05:46:02;2.17;;;1.47;;
16304;SDS011;8261;47.678;-122.174;2023-03-30T05:48:33;1.40;;;1.30;;
16304;SDS011;8261;47.678;-122.174;2023-03-30T05:51:04;2.73;;;2.50;;
16304;SDS011;8261;47.678;-122.174;2023-03-30T05:53:36;4.67;;;3.90;;
16304;SDS011;8261;47.678;-122.174;2023-03-30T05:56:07;7.63;;;6.83;;
16304;SDS011;8261;47.678;-122.174;2023-03-30T05:58:39;4.60;;;4.20;;
16304;SDS011;8261;47.678;-122.174;2023-03-30T06:01:12;2.57;;;2.03;;
16304;SDS011;8261;47.678;-122.174;2023-03-30T06:03:42;3.03;;;1.70;;
16304;SDS011;8261;47.678;-122.174;2023-03-30T06:06:14;2.93;;;1.37;;
16304;SDS011;8261;47.678;-122.174;2023-03-30T06:08:46;1.80;;;1.10;;
16304;SDS011;8261;47.678;-122.174;2023-03-30T06:11:19;2.17;;;1.30;;
16304;SDS011;8261;47.678;-122.174;2023-03-30T06:13:50;1.67;;;1.30;;
16304;SDS011;8261;47.678;-122.174;2023-03-30T06:16:22;3.57;;;1.17;;
16304;SDS011;8261;47.678;-122.174;2023-03-30T06:18:55;3.93;;;1.30;;
16304;SDS011;8261;47.678;-122.174;2023-03-30T06:21:26;4.03;;;1.30;;
16304;SDS011;8261;47.678;-122.174;2023-03-30T06:23:58;7.10;;;1.40;;
16304;SDS011;8261;47.678;-122.174;2023-03-30T06:26:30;2.67;;;1.37;;
16304;SDS011;8261;47.678;-122.174;2023-03-30T06:29:01;7.57;;;1.40;;
16304;SDS011;8261;47.678;-122.174;2023-03-30T06:31:34;1.70;;;1.00;;
16304;SDS011;8261;47.678;-122.174;2023-03-30T06:34:05;1.83;;;1.03;;
16304;SDS011;8261;47.678;-122.174;2023-03-30T06:36:36;1.67;;;1.10;;
16304;SDS011;8261;47.678;-122.174;2023-03-30T06:39:11;3.50;;;1.13;;
16304;SDS011;8261;47.678;-122.174;2023-03-30T06:41:43;1.87;;;1.40;;
16304;SDS011;8261;47.678;-122.174;2023-03-30T06:44:14;2.83;;;1.27;;
16304;SDS011;8261;47.678;-122.174;2023-03-30T06:46:48;2.97;;;1.13;;
16304;SDS011;8261;47.678;-122.174;2023-03-30T06:49:20;5.23;;;1.40;;
16304;SDS011;8261;47.678;-122.174;2023-03-30T06:51:52;1.47;;;1.27;;
16304;SDS011;8261;47.678;-122.174;2023-03-30T06:54:23;2.03;;;1.20;;
16304;SDS011;8261;47.678;-122.174;2023-03-30T06:56:55;2.80;;;1.13;;
16304;SDS011;8261;47.678;-122.174;2023-03-30T06:59:26;4.10;;;1.50;;
16304;SDS011;8261;47.678;-122.174;2023-03-30T07:02:02;3.20;;;1.30;;
16304;SDS011;8261;47.678;-122.174;2023-03-30T07:04:33;1.93;;;1.40;;
16304;SDS011;8261;47.678;-122.174;2023-03-30T07:07:04;2.00;;;1.30;;
16304;SDS011;8261;47.678;-122.174;2023-03-30T07:09:35;4.37;;;1.37;;
16304;SDS011;8261;47.678;-122.174;2023-03-30T07:12:06;3.97;;;1.40;;
16304;SDS011;8261;47.678;-122.174;2023-03-30T07:14:37;3.10;;;1.37;;
16304;SDS011;8261;47.678;-122.174;2023-03-30T07:17:10;2.93;;;1.63;;
16304;SDS011;8261;47.678;-122.174;2023-03-30T07:19:41;3.33;;;1.40;;
16304;SDS011;8261;47.678;-122.174;2023-03-30T07:22:13;2.23;;;1.30;;
16304;SDS011;8261;47.678;-122.174;2023-03-30T07:24:44;3.00;;;1.30;;
16304;SDS011;8261;47.678;-122.174;2023-03-30T07:27:16;1.47;;;1.20;;
16304;SDS011;8261;47.678;-122.174;2023-03-30T07:29:50;2.23;;;1.50;;
16304;SDS011;8261;47.678;-122.174;2023-03-30T07:32:32;3.20;;;1.30;;
16304;SDS011;8261;47.678;-122.174;2023-03-30T07:35:04;2.20;;;1.60;;
16304;SDS011;8261;47.678;-122.174;2023-03-30T07:37:35;2.93;;;1.30;;
16304;SDS011;8261;47.678;-122.174;2023-03-30T07:40:07;2.37;;;1.60;;
16304;SDS011;8261;47.678;-122.174;2023-03-30T07:42:39;2.33;;;1.43;;
16304;SDS011;8261;47.678;-122.174;2023-03-30T07:45:10;1.63;;;1.37;;
16304;SDS011;8261;47.678;-122.174;2023-03-30T07:47:44;2.33;;;1.40;;
16304;SDS011;8261;47.678;-122.174;2023-03-30T07:50:15;2.40;;;1.50;;
16304;SDS011;8261;47.678;-122.174;2023-03-30T07:52:49;1.57;;;1.47;;
16304;SDS011;8261;47.678;-122.174;2023-03-30T07:55:20;3.30;;;1.73;;
16304;SDS011;8261;47.678;-122.174;2023-03-30T07:57:51;2.97;;;1.37;;
16304;SDS011;8261;47.678;-122.174;2023-03-30T08:00:23;3.53;;;1.40;;
16304;SDS011;8261;47.678;-122.174;2023-03-30T08:02:57;2.70;;;1.47;;
16304;SDS011;8261;47.678;-122.174;2023-03-30T08:05:29;3.10;;;1.50;;
16304;SDS011;8261;47.678;-122.174;2023-03-30T08:08:00;4.13;;;1.50;;
16304;SDS011;8261;47.678;-122.174;2023-03-30T08:10:31;3.10;;;1.23;;
16304;SDS011;8261;47.678;-122.174;2023-03-30T08:13:04;2.87;;;1.17;;
16304;SDS011;8261;47.678;-122.174;2023-03-30T08:15:35;3.03;;;1.20;;
16304;SDS011;8261;47.678;-122.174;2023-03-30T08:18:08;2.53;;;1.40;;
16304;SDS011;8261;47.678;-122.174;2023-03-30T08:20:40;2.30;;;1.30;;
16304;SDS011;8261;47.678;-122.174;2023-03-30T08:23:12;2.07;;;1.30;;
16304;SDS011;8261;47.678;-122.174;2023-03-30T08:25:43;5.23;;;1.37;;
16304;SDS011;8261;47.678;-122.174;2023-03-30T08:28:18;2.50;;;1.40;;
16304;SDS011;8261;47.678;-122.174;2023-03-30T08:30:50;3.13;;;1.40;;
16304;SDS011;8261;47.678;-122.174;2023-03-30T08:33:25;1.60;;;1.27;;
16304;SDS011;8261;47.678;-122.174;2023-03-30T08:35:56;2.87;;;1.20;;
16304;SDS011;8261;47.678;-122.174;2023-03-30T08:38:27;1.80;;;1.27;;
16304;SDS011;8261;47.678;-122.174;2023-03-30T08:40:58;1.37;;;1.27;;
16304;SDS011;8261;47.678;-122.174;2023-03-30T08:43:40;3.03;;;1.47;;
16304;SDS011;8261;47.678;-122.174;2023-03-30T08:46:19;1.80;;;1.20;;
16304;SDS011;8261;47.678;-122.174;2023-03-30T08:48:52;3.10;;;1.30;;
16304;SDS011;8261;47.678;-122.174;2023-03-30T08:51:28;3.90;;;1.53;;
16304;SDS011;8261;47.678;-122.174;2023-03-30T08:54:01;1.63;;;1.30;;
16304;SDS011;8261;47.678;-122.174;2023-03-30T08:56:37;1.57;;;1.20;;
16304;SDS011;8261;47.678;-122.174;2023-03-30T08:59:14;2.87;;;1.63;;
16304;SDS011;8261;47.678;-122.174;2023-03-30T09:01:53;3.93;;;1.43;;
16304;SDS011;8261;47.678;-122.174;2023-03-30T09:04:31;2.97;;;1.40;;
16304;SDS011;8261;47.678;-122.174;2023-03-30T09:07:10;2.83;;;1.27;;
16304;SDS011;8261;47.678;-122.174;2023-03-30T09:09:46;5.13;;;1.30;;
16304;SDS011;8261;47.678;-122.174;2023-03-30T09:12:20;1.53;;;1.33;;
16304;SDS011;8261;47.678;-122.174;2023-03-30T09:15:02;1.60;;;1.20;;
16304;SDS011;8261;47.678;-122.174;2023-03-30T09:17:38;2.60;;;1.50;;
16304;SDS011;8261;47.678;-122.174;2023-03-30T09:20:18;2.03;;;1.60;;
16304;SDS011;8261;47.678;-122.174;2023-03-30T09:22:52;2.40;;;1.37;;
16304;SDS011;8261;47.678;-122.174;2023-03-30T09:25:25;2.47;;;1.50;;
16304;SDS011;8261;47.678;-122.174;2023-03-30T09:28:04;1.67;;;1.57;;
16304;SDS011;8261;47.678;-122.174;2023-03-30T09:30:44;3.43;;;1.60;;
16304;SDS011;8261;47.678;-122.174;2023-03-30T09:33:24;2.13;;;1.60;;
16304;SDS011;8261;47.678;-122.174;2023-03-30T09:36:02;2.53;;;1.20;;
16304;SDS011;8261;47.678;-122.174;2023-03-30T09:38:39;1.63;;;1.30;;
16304;SDS011;8261;47.678;-122.174;2023-03-30T09:41:14;4.20;;;1.43;;
16304;SDS011;8261;47.678;-122.174;2023-03-30T09:44:00;3.10;;;1.80;;
16304;SDS011;8261;47.678;-122.174;2023-03-30T09:46:31;2.73;;;1.77;;
16304;SDS011;8261;47.678;-122.174;2023-03-30T09:49:13;2.90;;;1.70;;
16304;SDS011;8261;47.678;-122.174;2023-03-30T09:52:01;2.20;;;1.70;;
16304;SDS011;8261;47.678;-122.174;2023-03-30T09:54:34;2.70;;;1.40;;
16304;SDS011;8261;47.678;-122.174;2023-03-30T09:57:20;1.57;;;1.40;;
16304;SDS011;8261;47.678;-122.174;2023-03-30T09:59:54;2.90;;;1.67;;
16304;SDS011;8261;47.678;-122.174;2023-03-30T10:02:26;1.73;;;1.30;;
16304;SDS011;8261;47.678;-122.174;2023-03-30T10:05:01;4.53;;;2.00;;
16304;SDS011;8261;47.678;-122.174;2023-03-30T10:07:35;4.40;;;1.70;;
16304;SDS011;8261;47.678;-122.174;2023-03-30T10:10:13;1.87;;;1.47;;
16304;SDS011;8261;47.678;-122.174;2023-03-30T10:12:53;5.97;;;1.53;;
16304;SDS011;8261;47.678;-122.174;2023-03-30T10:15:30;2.03;;;1.43;;
16304;SDS011;8261;47.678;-122.174;2023-03-30T10:18:11;1.70;;;1.50;;
16304;SDS011;8261;47.678;-122.174;2023-03-30T10:20:51;5.17;;;1.77;;
16304;SDS011;8261;47.678;-122.174;2023-03-30T10:23:28;4.63;;;1.77;;
16304;SDS011;8261;47.678;-122.174;2023-03-30T10:26:02;3.27;;;1.73;;
16304;SDS011;8261;47.678;-122.174;2023-03-30T10:28:35;1.93;;;1.60;;
16304;SDS011;8261;47.678;-122.174;2023-03-30T10:31:12;1.83;;;1.47;;
16304;SDS011;8261;47.678;-122.174;2023-03-30T10:33:45;2.87;;;1.53;;
16304;SDS011;8261;47.678;-122.174;2023-03-30T10:36:17;2.93;;;1.30;;
16304;SDS011;8261;47.678;-122.174;2023-03-30T10:38:51;1.97;;;1.30;;
16304;SDS011;8261;47.678;-122.174;2023-03-30T10:41:22;3.20;;;1.63;;
16304;SDS011;8261;47.678;-122.174;2023-03-30T10:43:54;2.40;;;1.67;;
16304;SDS011;8261;47.678;-122.174;2023-03-30T10:46:25;2.93;;;1.50;;
16304;SDS011;8261;47.678;-122.174;2023-03-30T10:49:07;2.30;;;1.57;;
16304;SDS011;8261;47.678;-122.174;2023-03-30T10:51:52;3.17;;;1.50;;
16304;SDS011;8261;47.678;-122.174;2023-03-30T10:54:35;4.00;;;1.77;;
16304;SDS011;8261;47.678;-122.174;2023-03-30T10:57:12;1.80;;;1.20;;
16304;SDS011;8261;47.678;-122.174;2023-03-30T10:59:49;2.10;;;1.60;;
16304;SDS011;8261;47.678;-122.174;2023-03-30T11:02:42;2.63;;;1.30;;
16304;SDS011;8261;47.678;-122.174;2023-03-30T11:05:18;1.80;;;1.60;;
16304;SDS011;8261;47.678;-122.174;2023-03-30T11:08:00;2.30;;;1.70;;
16304;SDS011;8261;47.678;-122.174;2023-03-30T11:10:35;1.83;;;1.50;;
16304;SDS011;8261;47.678;-122.174;2023-03-30T11:13:10;2.33;;;1.70;;
16304;SDS011;8261;47.678;-122.174;2023-03-30T11:15:45;2.60;;;1.63;;
16304;SDS011;8261;47.678;-122.174;2023-03-30T11:18:21;3.50;;;1.93;;
16304;SDS011;8261;47.678;-122.174;2023-03-30T11:20:58;2.07;;;1.40;;
16304;SDS011;8261;47.678;-122.174;2023-03-30T11:23:35;2.60;;;1.77;;
16304;SDS011;8261;47.678;-122.174;2023-03-30T11:26:14;3.57;;;1.40;;
16304;SDS011;8261;47.678;-122.174;2023-03-30T11:28:54;5.57;;;1.57;;
16304;SDS011;8261;47.678;-122.174;2023-03-30T11:31:35;3.03;;;1.50;;
16304;SDS011;8261;47.678;-122.174;2023-03-30T11:34:23;4.47;;;1.53;;
16304;SDS011;8261;47.678;-122.174;2023-03-30T11:37:00;3.03;;;1.50;;
16304;SDS011;8261;47.678;-122.174;2023-03-30T11:39:40;2.00;;;1.50;;
16304;SDS011;8261;47.678;-122.174;2023-03-30T11:42:19;1.87;;;1.47;;
16304;SDS011;8261;47.678;-122.174;2023-03-30T11:44:54;3.63;;;1.40;;
16304;SDS011;8261;47.678;-122.174;2023-03-30T11:50:24;1.80;;;1.40;;
16304;SDS011;8261;47.678;-122.174;2023-03-30T11:53:06;4.10;;;1.50;;
16304;SDS011;8261;47.678;-122.174;2023-03-30T11:55:46;1.87;;;1.23;;
16304;SDS011;8261;47.678;-122.174;2023-03-30T11:58:29;3.13;;;1.40;;
16304;SDS011;8261;47.678;-122.174;2023-03-30T12:04:08;3.03;;;1.73;;
16304;SDS011;8261;47.678;-122.174;2023-03-30T12:06:41;1.50;;;1.20;;
16304;SDS011;8261;47.678;-122.174;2023-03-30T12:09:23;2.37;;;1.80;;
16304;SDS011;8261;47.678;-122.174;2023-03-30T12:12:01;1.90;;;1.50;;
16304;SDS011;8261;47.678;-122.174;2023-03-30T12:14:43;3.83;;;1.43;;
16304;SDS011;8261;47.678;-122.174;2023-03-30T12:17:28;1.60;;;1.40;;
16304;SDS011;8261;47.678;-122.174;2023-03-30T12:20:06;2.33;;;1.60;;
16304;SDS011;8261;47.678;-122.174;2023-03-30T12:22:48;2.60;;;1.70;;
16304;SDS011;8261;47.678;-122.174;2023-03-30T12:25:30;2.93;;;1.63;;
16304;SDS011;8261;47.678;-122.174;2023-03-30T12:28:11;2.23;;;1.50;;
16304;SDS011;8261;47.678;-122.174;2023-03-30T12:30:52;5.03;;;1.70;;
16304;SDS011;8261;47.678;-122.174;2023-03-30T12:33:27;2.83;;;1.70;;
16304;SDS011;8261;47.678;-122.174;2023-03-30T12:36:04;2.00;;;1.40;;
16304;SDS011;8261;47.678;-122.174;2023-03-30T12:38:54;3.83;;;1.60;;
16304;SDS011;8261;47.678;-122.174;2023-03-30T12:41:36;3.17;;;1.73;;
16304;SDS011;8261;47.678;-122.174;2023-03-30T12:44:23;2.90;;;1.67;;
16304;SDS011;8261;47.678;-122.174;2023-03-30T12:50:17;2.13;;;1.37;;
16304;SDS011;8261;47.678;-122.174;2023-03-30T12:53:02;2.83;;;1.60;;
16304;SDS011;8261;47.678;-122.174;2023-03-30T12:55:52;1.50;;;1.20;;
16304;SDS011;8261;47.678;-122.174;2023-03-30T12:58:41;2.30;;;1.40;;
16304;SDS011;8261;47.678;-122.174;2023-03-30T13:01:26;2.50;;;1.57;;
16304;SDS011;8261;47.678;-122.174;2023-03-30T13:04:11;3.53;;;1.60;;
16304;SDS011;8261;47.678;-122.174;2023-03-30T13:06:50;2.23;;;1.40;;
16304;SDS011;8261;47.678;-122.174;2023-03-30T13:09:32;3.57;;;1.50;;
16304;SDS011;8261;47.678;-122.174;2023-03-30T13:12:28;3.23;;;1.70;;
16304;SDS011;8261;47.678;-122.174;2023-03-30T13:15:03;4.77;;;1.70;;
16304;SDS011;8261;47.678;-122.174;2023-03-30T13:17:56;2.17;;;1.57;;
16304;SDS011;8261;47.678;-122.174;2023-03-30T13:20:32;3.17;;;1.67;;
16304;SDS011;8261;47.678;-122.174;2023-03-30T13:23:05;3.80;;;1.60;;
16304;SDS011;8261;47.678;-122.174;2023-03-30T13:26:04;2.97;;;1.90;;
16304;SDS011;8261;47.678;-122.174;2023-03-30T13:29:04;2.47;;;1.60;;
16304;SDS011;8261;47.678;-122.174;2023-03-30T13:37:44;4.63;;;1.80;;
16304;SDS011;8261;47.678;-122.174;2023-03-30T13:40:25;3.83;;;1.63;;
16304;SDS011;8261;47.678;-122.174;2023-03-30T13:43:11;2.37;;;1.53;;
16304;SDS011;8261;47.678;-122.174;2023-03-30T13:45:51;3.23;;;1.70;;
16304;SDS011;8261;47.678;-122.174;2023-03-30T13:48:46;3.53;;;1.73;;
16304;SDS011;8261;47.678;-122.174;2023-03-30T13:51:26;4.03;;;1.63;;
16304;SDS011;8261;47.678;-122.174;2023-03-30T13:54:01;2.87;;;2.00;;
16304;SDS011;8261;47.678;-122.174;2023-03-30T13:56:35;4.30;;;2.30;;
16304;SDS011;8261;47.678;-122.174;2023-03-30T13:59:09;3.87;;;1.97;;
16304;SDS011;8261;47.678;-122.174;2023-03-30T14:01:43;4.73;;;1.83;;
16304;SDS011;8261;47.678;-122.174;2023-03-30T14:04:18;2.10;;;1.53;;
16304;SDS011;8261;47.678;-122.174;2023-03-30T14:06:49;7.00;;;1.80;;
16304;SDS011;8261;47.678;-122.174;2023-03-30T14:09:23;2.37;;;1.60;;
16304;SDS011;8261;47.678;-122.174;2023-03-30T14:11:56;3.53;;;1.93;;
16304;SDS011;8261;47.678;-122.174;2023-03-30T14:14:32;7.10;;;2.13;;
16304;SDS011;8261;47.678;-122.174;2023-03-30T14:17:11;5.83;;;1.97;;
16304;SDS011;8261;47.678;-122.174;2023-03-30T14:19:49;3.40;;;1.87;;
16304;SDS011;8261;47.678;-122.174;2023-03-30T14:22:35;2.73;;;1.73;;
16304;SDS011;8261;47.678;-122.174;2023-03-30T14:25:22;6.90;;;2.03;;
16304;SDS011;8261;47.678;-122.174;2023-03-30T14:27:56;3.67;;;1.90;;
16304;SDS011;8261;47.678;-122.174;2023-03-30T14:30:31;7.03;;;1.87;;
16304;SDS011;8261;47.678;-122.174;2023-03-30T14:33:04;4.07;;;1.97;;
16304;SDS011;8261;47.678;-122.174;2023-03-30T14:35:38;6.77;;;2.20;;
16304;SDS011;8261;47.678;-122.174;2023-03-30T14:38:15;3.77;;;2.10;;
16304;SDS011;8261;47.678;-122.174;2023-03-30T14:40:51;5.73;;;2.20;;
16304;SDS011;8261;47.678;-122.174;2023-03-30T14:43:26;4.03;;;2.23;;
16304;SDS011;8261;47.678;-122.174;2023-03-30T14:46:01;12.33;;;3.00;;
16304;SDS011;8261;47.678;-122.174;2023-03-30T14:48:35;5.07;;;2.20;;
16304;SDS011;8261;47.678;-122.174;2023-03-30T14:51:19;6.20;;;2.40;;
16304;SDS011;8261;47.678;-122.174;2023-03-30T14:53:52;6.90;;;2.37;;
16304;SDS011;8261;47.678;-122.174;2023-03-30T14:56:26;6.07;;;1.80;;
16304;SDS011;8261;47.678;-122.174;2023-03-30T14:58:58;4.93;;;2.10;;
16304;SDS011;8261;47.678;-122.174;2023-03-30T15:01:30;4.83;;;2.17;;
16304;SDS011;8261;47.678;-122.174;2023-03-30T15:04:04;7.57;;;2.23;;
16304;SDS011;8261;47.678;-122.174;2023-03-30T15:06:39;10.13;;;2.30;;
16304;SDS011;8261;47.678;-122.174;2023-03-30T15:09:13;6.53;;;2.33;;
16304;SDS011;8261;47.678;-122.174;2023-03-30T15:11:49;5.67;;;2.70;;
16304;SDS011;8261;47.678;-122.174;2023-03-30T15:14:26;7.30;;;2.40;;
16304;SDS011;8261;47.678;-122.174;2023-03-30T15:17:05;7.53;;;2.40;;
16304;SDS011;8261;47.678;-122.174;2023-03-30T15:19:38;9.47;;;2.37;;
16304;SDS011;8261;47.678;-122.174;2023-03-30T15:22:11;5.70;;;2.50;;
16304;SDS011;8261;47.678;-122.174;2023-03-30T15:24:47;7.53;;;2.77;;
16304;SDS011;8261;47.678;-122.174;2023-03-30T15:27:21;13.53;;;2.57;;
16304;SDS011;8261;47.678;-122.174;2023-03-30T15:29:54;8.90;;;2.50;;
16304;SDS011;8261;47.678;-122.174;2023-03-30T15:32:29;8.40;;;2.73;;
16304;SDS011;8261;47.678;-122.174;2023-03-30T15:35:11;9.40;;;2.50;;
16304;SDS011;8261;47.678;-122.174;2023-03-30T15:37:53;7.17;;;2.03;;